Submittal Forms
Current Contests
Recent Contests

Group Activity Tracker - NCCC and Friends (from list of calls managed by WX5S)

Recent postings for the selected club or group are listed below. Other than the call used, all calls listed are only those associated with the club or group. Click on a call to see the details of the posting.
Status Key: new=new posting, update=update prior posting, move=change club/group, delete=delete prior posting.

Sort by   for past

TimestampCallContestClassPowerScoreStatus
2024-05-24 21:42:20W6SXKRC SST May 24Single OpHP630new9478
2024-05-24 20:38:08N0KQKRC SST May 24Single OpHP300new9478
2024-05-24 03:29:27N6ZFONCCC Sprint May 24Single OpLP1,540new9477
2024-05-24 03:05:41N6TTVNCCC Sprint May 24Single OpLP594new9477
2024-05-24 03:03:10AJ6VNCCC Sprint May 24Single OpLP1,020new9477
2024-05-24 02:40:28KI6OYWRT May 24Single OpLP288new9476
2024-05-24 02:19:08NF6RWRT May 24Single OpLP63new9476
2024-05-24 02:17:54N0KQWRT May 24Single OpLP154new9476
2024-05-24 01:41:10AJ6VNCCC FT4-Sprint May 24Single OpLP552new9475
2024-05-23 18:29:02KF6NCXCWopsT 0300Z May 23Single OpHP1,024new9473
 
2024-05-23 05:39:29KI6OYCWopsT 0300Z May 23Single OpLP1,476new9473
2024-05-23 04:04:54WU6P(@N6RO)CWopsT 0300Z May 23Single OpHP28,436new9473
2024-05-23 04:00:34NN7OCWopsT 0300Z May 23Single OpLP1,292new9473
2024-05-22 21:55:35W6SXCWopsT 1900Z May 22Single OpHP256new9472
2024-05-22 21:53:55N0KQCWopsT 1900Z May 22Single OpHP1,440new9472
2024-05-22 20:21:23WU6P(@N6RO)CWopsT 1900Z May 22Single OpHP14,238new9472
2024-05-22 20:16:47N6TTVCWopsT 1900Z May 22Single OpHP1,400new9472
2024-05-22 20:11:14P40L(WD6T)CWopsT 1900Z May 22Single OpHP23,452new9472
2024-05-22 19:23:22NN7OCWopsT 1900Z May 22Single OpLP144new9472
2024-05-22 16:24:00P40L(WD6T)CWopsT 1300Z May 22Single OpHP14,238new9471
 
2024-05-22 14:04:10W6SXCWopsT 1300Z May 22Single OpHP19,591new9471
2024-05-22 14:03:05WU6XCWopsT 1300Z May 22Single OpLP256new9471
2024-05-22 13:32:02NN7OCWopsT 1300Z May 22Single OpLP441new9471
2024-05-21 05:30:42KI6OYICWC MST 0300Z May 21Single OpLP588new9467
2024-05-21 03:25:25NN7OICWC MST 0300Z May 21Single OpLP49new9467
2024-05-21 03:25:21WU6PICWC MST 0300Z May 21Single OpLP100new9467
2024-05-20 20:19:20KI6OYICWC MST 1900Z May 20Single OpLP420new9466
2024-05-20 20:02:21KI6OYCWopsT 1900Z May 15Single OpLP420new9452
2024-05-20 20:01:57K6RCICWC MST 1900Z May 20Single OpHP2,958new9466
2024-05-20 19:37:08N0KQICWC MST 1900Z May 20Single OpHP600new9466
 
2024-05-20 19:26:21W6SXICWC MST 1900Z May 20Single OpHP1,480new9466
2024-05-20 19:19:20WU6PICWC MST 1900Z May 20Single OpLP121new9466
2024-05-20 17:59:39KI6OYICWC MST 1300Z May 20Single OpLP462new9465
2024-05-20 13:28:08W6SXICWC MST 1300Z May 20Single OpHP1,326new9465
2024-05-20 12:51:22W6SXKRC SST May 20Single OpHP726new9459
2024-05-20 03:31:16KF6NCXArQPSOMixedHP354new9463
2024-05-20 00:40:57NN7OKRC SST May 20Single OpLP352new9459
2024-05-19 18:32:48NN7OArQPSOCWLP4new9463
2024-05-19 17:46:11KA6BIMArQPSOMixedHP3,208update9463
2024-05-19 13:27:04W6SXKing of Spain CWSOABHP40new9461
 
2024-05-19 11:26:01K6RMArQPSOCWLP484new9463
2024-05-19 03:42:24KI6OYArQPSOCWLP280new9463
2024-05-19 02:50:00NN6UArQPSOSSBHP9new9463
2024-05-17 20:26:50N0KQKRC SST May 17Single OpHP180new9458
2024-05-17 03:06:23N6TTVNCCC Sprint May 17Single OpLP728new9457
2024-05-17 02:22:22KI6OYWRT May 17Single OpLP90new9456
2024-05-16 23:35:35KF6NCXCWopsT 0300Z May 16Single OpHP1,849new9453
2024-05-16 08:05:13WU6P(@N6RO)CWopsT 0700Z May 16Single OpHP1,000new9454
2024-05-16 05:28:58KI6OYCWopsT 0300Z May 16Single OpLP2,592new9453
2024-05-16 04:09:51WU6P(@N6RO)CWopsT 0300Z May 16Single OpHP13,500new9453
 
2024-05-16 04:02:38N0KQCWopsT 0300Z May 16Single OpHP2,478new9453
2024-05-16 03:26:37NN7OCWopsT 0300Z May 16Single OpLP144new9453
2024-05-15 21:29:59N6TTVCWopsT 1900Z May 15Single OpHP256new9452
2024-05-15 19:54:02N0KQCWopsT 1900Z May 15Single OpHP2,254new9452
2024-05-15 19:15:21NN7OCWopsT 1900Z May 15Single OpLP121new9452
2024-05-15 19:15:10WU6PCWopsT 1900Z May 15Single OpLP121new9452
2024-05-15 18:13:03W6SXCWopsT 1300Z May 15Single OpHP3,249new9451
2024-05-15 13:38:07NN7OCWopsT 1300Z May 15Single OpLP361new9451
2024-05-15 13:23:41K6RBCWopsT 1300Z May 15Single OpHP100new9451
2024-05-15 01:35:09AJ6T50SprngSprntSingle OpLP8new9444
 
2024-05-14 18:00:15KA6BIMCPQPSingle OpHP81new9443
2024-05-14 05:52:53KI6OYICWC MST 0300Z May 14Single OpLP986new9447
2024-05-14 04:02:29NF6RICWC MST 0300Z May 14Single OpLP63new9447
2024-05-14 03:32:53N0KQICWC MST 0300Z May 14Single OpHP572new9447
2024-05-14 03:25:12NN7OICWC MST 0300Z May 14Single OpLP144new9447
2024-05-14 03:15:44WU6PICWC MST 0300Z May 14Single OpLP225new9447
2024-05-14 03:15:21WU6PICWC MST 1900Z May 13Single OpLP121new9446
2024-05-13 23:02:42W6SXICWC MST 1900Z May 13Single OpHP256new9446
2024-05-13 20:38:15KI6OYICWC MST 1900Z May 13Single OpLP225new9446
2024-05-13 20:12:19W7EEE(W6IA)7QPCnty Exped M/MHP123,960update9422
 
2024-05-13 19:36:55N0KQICWC MST 1900Z May 13Single OpHP624new9446
2024-05-13 17:45:14KI6OYICWC MST 1300Z May 13Single OpLP144new9445
2024-05-13 13:24:04W6SXICWC MST 1300Z May 13Single OpHP648new9445
2024-05-13 12:25:18W6SXKRC SST May 13Single OpHP1,260new9440
2024-05-13 00:59:48N0KQKRC SST May 13Single OpHP630new9440
2024-05-12 22:48:03KF6NCXCPQPSingle OpHP16new9443
2024-05-12 22:46:53VA4JPCPQPSingle OpLP1update9443
2024-05-12 12:08:21W6SXVolta RTTYSOABHP21,528new9441
2024-05-12 03:36:32NN6UCPQPSingle OpHP20new9443
2024-05-12 03:22:12KI6OYCPQPSingle OpLP25new9443
 
2024-05-10 22:45:37W6SXKRC SST May 10Single OpHP640new9439
2024-05-10 20:40:14N0KQKRC SST May 10Single OpHP286new9439
2024-05-10 19:28:16N6ZFONCCC Sprint May 10Single OpLP1,554new9438
2024-05-10 03:06:48N6TTVNCCC Sprint May 10Single OpLP525new9438
2024-05-10 03:02:52AJ6VNCCC Sprint May 10Single OpLP1,271new9438
2024-05-10 02:55:36KI6OYWRT May 10Single OpLP500new9437
2024-05-10 02:51:31KI6OYCWopsT 0300Z May 9Single OpLP1,332new9434
2024-05-10 02:18:16N0KQWRT May 10Single OpLP336new9437
2024-05-10 02:17:31W6EUWRT May 10Single OpHP520new9437
2024-05-10 02:11:20W1RH7QPSOCWHP2,496new9422
 
2024-05-10 01:44:36AJ6VNCCC FT4-Sprint May 10Single OpLP414new9436
2024-05-10 00:17:13W6EU7QPSOCWHP48,300new9422
2024-05-09 09:12:04WU6P(@N6RO)CWopsT 0700Z May 9Single OpHP4,950new9435
2024-05-09 04:38:12W6SCNewEngQPSingle OpHP2,080new9425
2024-05-09 04:34:58W6SCInQPSingle OpHP8new9423
2024-05-09 04:30:31W6SC7QPSOCWHP8,064new9422
2024-05-09 04:23:42KF6NCXCWopsT 0300Z May 9Single OpHP784new9434
2024-05-09 04:08:32K6CTACWopsT 0300Z May 9Single OpLP625new9434
2024-05-09 04:03:16K6RCCWopsT 0300Z May 9Single OpHP6,080new9434
2024-05-09 03:56:35WU6PCWopsT 0300Z May 9Single OpLP380new9434
 
2024-05-09 03:52:03K6RBCWopsT 0300Z May 9Single OpHP13,970new9434
2024-05-09 03:50:36NN7OCWopsT 0300Z May 9Single OpLP1,260new9434
2024-05-09 00:04:34W6SXCWopsT 1900Z May 8Single OpHP18,496new9433
2024-05-08 22:29:43KF6NCXInQPSingle OpHP24new9423
2024-05-08 22:26:44KF6NCXNewEngQPSingle OpHP336new9425
2024-05-08 22:22:22KF6NCX7QPM/SHP2,625new9422
 (@KF6NCX)
2024-05-08 20:20:50WU6P(@N6RO)CWopsT 1900Z May 8Single OpLP7,480new9433
2024-05-08 20:04:10N6TTVCWopsT 1900Z May 8Single OpHP1,088new9433
2024-05-08 19:28:11K6RBCWopsT 1900Z May 8Single OpHP4,290new9433
2024-05-08 19:26:13NN7OCWopsT 1900Z May 8Single OpLP225new9433
 
2024-05-08 16:53:54N7N(K9YC,W6JTI,W6GJB)7QPCnty Exped M/MHP235,092update9422
2024-05-08 15:06:48W6SXCWopsT 1300Z May 8Single OpHP21,016new9432
2024-05-08 14:42:01WU6XCWopsT 1300Z May 8Single OpLP144new9432
2024-05-08 13:43:31NN7OCWopsT 1300Z May 8Single OpLP625new9432
2024-05-07 17:13:12W7W(K6EI)7QPCnty Exped M/MLP231,726new9422
2024-05-07 16:26:40KI6OYICWC MST 0300Z May 7Single OpLP400new9428
2024-05-07 03:21:31NN7OICWC MST 0300Z May 7Single OpLP100new9428
2024-05-07 01:20:04KI6OYNewEngQPSingle OpLP6,440new9425
2024-05-07 01:17:03KI6OYInQPSingle OpLP456new9423
2024-05-07 01:14:17KI6OYDeQPSingle OpLP160new9424
 
2024-05-07 01:12:07KI6OY7QPSOCWLP18,444new9422
2024-05-07 00:43:32K6MM7QPSOMixedHP12,172new9422
2024-05-06 23:07:20K6KSDeQPSingle OpHP10new9424
2024-05-06 23:05:16K6KSInQPSingle OpHP9new9423
2024-05-06 23:03:10K6KSNewEngQPSingle OpHP252new9425
2024-05-06 23:00:29K6KS7QPSOSSBHP4,032new9422
2024-05-06 22:40:31W6SXICWC MST 1300Z May 6Single OpHP598new9426
2024-05-06 20:12:26KI6OYICWC MST 1900Z May 6Single OpLP144new9427
2024-05-06 19:49:05WU6PICWC MST 1900Z May 6Single OpLP9new9427
2024-05-06 19:34:09N0KQICWC MST 1900Z May 6Single OpHP598new9427
 
2024-05-06 18:14:03KI6OYICWC MST 1300Z May 6Single OpLP132new9426
2024-05-06 17:15:57K6CTA7QPSOCWLP1,890new9422
2024-05-06 17:12:44KU7Y7QPSOCWQRP1,482new9422
2024-05-06 17:02:00KA6BIM/7(@KA6BIM)ARISO MixedHP957new9421
2024-05-06 16:48:17KA6BIM/7(@KA6BIM)DeQPSingle OpHP1,100new9424
2024-05-06 16:06:01KA6BIM/7(@KA6BIM)InQPSingle OpHP2,640new9423
2024-05-06 15:41:29KA6BIM/7(@KA6BIM)NewEngQPSingle OpHP27,360new9425
2024-05-06 15:06:40KA6BIM/7(@KA6BIM)7QPSOMixedHP152,130new9422
2024-05-06 01:00:14N0KQKRC SST May 6Single OpHP1,200new9419
2024-05-06 00:59:35NN6UDeQPSingle OpHP4new9424
 
2024-05-06 00:59:31N6TTVNewEngQPSingle OpHP1,800new9425
2024-05-06 00:49:09K6GHA7QPSOSSBLP47,436update9422
2024-05-06 00:41:37NN7OKRC SST May 6Single OpLP513new9419
2024-05-06 00:27:11W6SXKRC SST May 6Single OpHP374new9419
2024-05-06 00:11:16NN6UNewEngQPSingle OpLP49new9425
2024-05-05 23:46:02W6SXNewEngQPSingle OpHP3,840new9425
2024-05-05 23:43:54W6SXDeQPSingle OpHP20new9424
2024-05-05 23:00:49W7QM(@W6SX)7QPCnty Exped SOHP46,980new9422
2024-05-05 22:53:03W7QM(@W6SX)InQPSingle OpHP48new9423
2024-05-05 22:50:00K6GHAInQPSingle OpLP9new9423
 
2024-05-05 22:40:37N5YJZ7QPSOSSBLP20new9422
2024-05-05 22:38:21AJ6VDeQPSingle OpHP10new9424
2024-05-05 22:05:26N6RODeQPM/SHP240new9424
 (WU6P,WD6T,KO6M,KK6PXT,@N6RO)
2024-05-05 22:03:54N6ROInQPM/MHP704new9423
 (KO6M,KK6PXT,WD6T,WU6P,@N6RO)
2024-05-05 22:02:35N6RONewEngQPM/MHP1,121new9425
 (KO6M,KK6PXT,WU6P,WD6T,@N6RO)
2024-05-05 21:59:54AJ6VInQPSingle OpHP180new9423
2024-05-05 21:56:02N6RO7QPM/MHP352,779new9422
 (KO6M,KK6PXT,WU6P,WD6T,@N6RO)
2024-05-05 21:55:19AJ6VNewEngQPSingle OpHP1,988new9425
2024-05-05 21:45:41NN7ONewEngQPSingle OpLP2,842new9425
2024-05-05 21:42:20AJ6V7QPSOMixedHP52,374new9422
 
2024-05-05 21:13:25K7RC(@K6DGW)7QPSOCWLP3,243new9422
2024-05-05 19:30:05W7RN7QPM/MHP292,187new9422
 (KH2TJ,K5RC,WX5S,K7TDM,@W7RN)
2024-05-05 19:03:10W6OAT7QPM/SHP204,732new9422
 (@W6OAT)
2024-05-05 18:58:01WU6X7QPSOCWLP6,156new9422
2024-05-05 16:10:42NF6RInQPSingle OpLP18new9423
2024-05-05 16:10:00NF6RNewEngQPSingle OpLP144new9425
2024-05-05 16:08:44NF6R7QPSOMixedLP8,626new9422
2024-05-05 15:46:18N6TTV7QPSOCWHP13,083new9422
2024-05-05 15:25:34KO6M7QPSOMixedLP864new9422
2024-05-05 14:08:46NN7OInQPSingle OpLP28new9423
 
2024-05-05 14:05:58NN7O7QPSOMixedLP11,925new9422
2024-05-05 14:05:51WB6JJJ/7(@WB6JJJ)7QPSOSSBHP15,792update9422
2024-05-05 11:54:43K6RMInQPSingle OpQRP144new9423
2024-05-05 11:52:41K6RM7QPSOCWQRP1,071new9422
2024-05-05 07:42:49NN6UInQPSingle OpHP25new9423
2024-05-05 07:29:27NN6U7QPSOMixedLP6,072new9422
2024-05-05 07:18:56W7TA7QPM/SLP462new9422
 (K6ST)
2024-05-05 05:26:16N3RC7QPSOCWHP3,328new9422
2024-05-04 22:36:03NA6O(@W6SRR)7QPSOCWHP1,500new9422
2024-05-04 21:11:18K6VVANCCC Sprint May 3Single OpLP918new9417
 
2024-05-03 20:43:57N0KQKRC SST May 3Single OpHP396new9418
2024-05-03 17:52:03W6EUSPDX RTTYSOABHP6,123new9394
2024-05-03 17:45:41W6EUFlQPSOABCWHP128new9397
2024-05-03 04:24:59N6ZFONCCC Sprint May 3Single OpLP2,058update9417
2024-05-03 04:24:17KI6OYCWopsT 0300Z May 2Single OpLP1,440update9413
2024-05-03 03:05:36N6TTVNCCC Sprint May 3Single OpLP525new9417
2024-05-03 03:04:01AJ6VNCCC Sprint May 3Single OpLP986new9417
2024-05-03 03:02:27WD6T(@N6RO)NCCC Sprint May 3Single OpLP1,887new9417
2024-05-03 02:30:34KI6OYWRT May 3Single OpLP150new9416
2024-05-03 02:19:39N0KQWRT May 3Single OpLP81new9416
 
2024-05-03 01:42:42AJ6VNCCC FT4-Sprint May 3Single OpLP323new9415
2024-05-02 08:06:53WU6P(@N6RO)CWopsT 0700Z May 2Single OpHP1,440new9414
2024-05-02 04:06:44WD6T(@N6RO)CWopsT 0300Z May 2Single OpHP29,223new9413
2024-05-02 04:04:09K6RCCWopsT 0300Z May 2Single OpLP2,025new9413
2024-05-02 04:03:16K6NVCWopsT 0300Z May 2Single OpHP1,935new9413
2024-05-02 04:01:16K6RBCWopsT 0300Z May 2Single OpHP16,048new9413
2024-05-02 03:56:55NN7OCWopsT 0300Z May 2Single OpLP1,156new9413
2024-05-02 03:35:01WU6PCWopsT 0300Z May 2Single OpLP990new9413
2024-05-01 21:35:59W7QM(W6SX)CWopsT 1900Z May 1Single OpHP182new9412
2024-05-01 20:17:17WD6T(@N6RO)CWopsT 1900Z May 1Single OpHP16,851new9412
 
2024-05-01 20:05:31N6TTVCWopsT 1900Z May 1Single OpHP1,369new9412
2024-05-01 19:50:21WU6XCWopsT 1900Z May 1Single OpLP256new9412
2024-05-01 19:31:58K6RBCWopsT 1900Z May 1Single OpHP3,599new9412
2024-05-01 19:29:26NN7OCWopsT 1900Z May 1Single OpLP400new9412
2024-05-01 19:26:19WU6PCWopsT 1900Z May 1Single OpLP400new9412
2024-05-01 18:56:43KI6OYFlQPSOAB(A)CWLP9,512update9397
2024-05-01 14:20:31W7QM(W6SX)CWopsT 1300Z May 1Single OpHP361new9411
2024-05-01 14:13:40WU6XCWopsT 1300Z May 1Single OpLP306new9411
2024-05-01 13:47:07NN7OCWopsT 1300Z May 1Single OpLP196new9411
2024-05-01 13:33:14K6RBCWopsT 1300Z May 1Single OpHP4,556new9411
 
2024-05-01 12:30:57K6RBAWT May 1Single OpHP225new9410
2024-04-30 05:35:41KI6OYICWC MST 0300Z Apr 30Single OpLP1,122new9405
2024-04-30 04:05:54KA6BIMFlQPSOAB(A)CWHP56,146update9397
2024-04-30 04:02:24N0KQICWC MST 0300Z Apr 30Single OpLP144new9405
2024-04-30 03:49:54K6NVICWC MST 0300Z Apr 30Single OpHP575new9405
2024-04-30 03:32:17NN7OICWC MST 0300Z Apr 30Single OpLP441new9405
2024-04-30 03:16:52WU6PICWC MST 0300Z Apr 30Single OpLP169new9405
2024-04-30 01:22:08KF6NCXICWC MST 1900Z Apr 29Single OpHP272new9404
2024-04-30 01:18:08KF6NCXFlQPSOABMixedHP4,556update9397
2024-04-29 20:21:10KI6OYICWC MST 1900Z Apr 29Single OpLP361new9404
 
2024-04-29 20:04:53K6RCICWC MST 1900Z Apr 29Single OpLP1,085new9404
2024-04-29 19:56:05N0KQICWC MST 1900Z Apr 29Single OpHP870new9404
2024-04-29 19:27:03WU6PICWC MST 1900Z Apr 29Single OpLP100new9404
2024-04-29 17:17:17KI6OYICWC MST 1300Z Apr 29Single OpLP256new9403
2024-04-29 15:13:22W6SXICWC MST 1300Z Apr 29Single OpHP625new9403
2024-04-29 14:57:52N6DWFlQPSOAB(A)MixedHP10,187new9397
2024-04-29 11:17:54K6RMFlQPSOABCWQRP2,560new9397
2024-04-29 04:31:33N6ZFOFlQPSOABCWHP14,900new9397
2024-04-29 02:11:45W6SXKRC SST Apr 29Single OpHP1,346new9393
2024-04-29 00:51:59NN7OKRC SST Apr 29Single OpLP714new9393
 
2024-04-29 00:34:42N0KQKRC SST Apr 29Single OpHP320new9393
2024-04-28 22:35:58NN6UFlQPSOAB(A)SSBHP1,624new9397
2024-04-28 22:18:27W7RN(K5RC)FlQPSOAB(A)MixedHP19,899new9397
2024-04-28 22:11:35N6TTVFlQPSOABCWHP3,248new9397
2024-04-28 19:21:02W6SXBARTG 75 AprilSingle OpHP21new9399
2024-04-28 13:54:05W6SXSPDX RTTYSOABHP9,296new9394
2024-04-26 21:21:56W6EUKRC SST Apr 26Single OpHP840new9392
2024-04-26 20:37:06N0KQKRC SST Apr 26Single OpHP384new9392
2024-04-26 08:16:18N6ZFONCCC Sprint Apr 26Single OpLP30new9391
2024-04-26 03:11:06K6VVANCCC Sprint Apr 26Single OpLP980new9391
 
2024-04-26 03:05:05KM9RNCCC Sprint Apr 26Single OpLP221new9391
2024-04-26 03:05:04N6TTVNCCC Sprint Apr 26Single OpLP638new9391
2024-04-26 03:04:56WD6T(@N6RO)NCCC Sprint Apr 26Single OpLP2,464new9391
2024-04-26 03:02:41AJ6VNCCC Sprint Apr 26Single OpLP1,584new9391
2024-04-26 03:02:25K6NVNCCC Sprint Apr 26Single OpLP345new9391
2024-04-26 02:34:11KI6OYWRT Apr 26Single OpLP187new9390
2024-04-26 01:44:21AJ6VNCCC FT4-Sprint Apr 26Single OpLP896new9389
2024-04-25 22:31:10KF6NCXCWopsT 0300Z Apr 25Single OpHP1,089new9386
2024-04-25 16:46:38AJ6T432SprngSprntSingle OpLP30new9388
2024-04-25 08:05:34WU6P(@N6RO)CWopsT 0700Z Apr 25Single OpHP6,600new9387
 
2024-04-25 04:32:22WU6P(@N6RO)CWopsT 0300Z Apr 25Single OpHP20,196new9386
2024-04-25 04:15:30W6SCCWopsT 0300Z Apr 25Single OpHP288new9386
2024-04-25 04:03:50N0KQCWopsT 0300Z Apr 25Single OpHP3,944new9386
2024-04-25 04:02:11K6NVCWopsT 0300Z Apr 25Single OpHP2,340new9386
2024-04-25 03:43:39K6RBCWopsT 0300Z Apr 25Single OpHP12,544new9386
2024-04-25 03:36:05NN7OCWopsT 0300Z Apr 25Single OpLP625new